RKSO/OSN METAR and TAF weather

Enter ICAO airport designator
Station Type Date Time Source
RKSO METAR 2022/01/26 18:58 UTC NOAA

RKSO 261858Z AUTO 00000KT 10SM BKN150 BKN180 M03/M07 A3028 RMK AO2 SLP258 T10271069 TSNO $


Station Type Date Time Source
RKSO Decoded METAR 2022/01/26 18:58 UTC NOAA

Osan Ab, Korea, South (RKSO) 37-06N 127-02E 12M
Jan 26, 2022 - 01:58 PM EST / 2022.01.26 1858 UTC
Wind: Calm:0
Visibility: 10 mile(s):0
Sky conditions: mostly cloudy
Temperature: 27.1 F (-2.7 C)
Dew Point: 19.6 F (-6.9 C)
Relative Humidity: 72%
Pressure (altimeter): 30.28 in. Hg (1025 hPa)
ob: RKSO 261858Z AUTO 00000KT 10SM BKN150 BKN180 M03/M07 A3028 RMK AO2 SLP258 T10271069 TSNO
cycle: 19

Station Type Date Time Source
RKSO TAF 2022/01/26 13:03 UTC NOAA

TAF RKSO 261300Z 2613/2719 33006KT 9999 SCT160 QNH3026INS
BECMG 2705/2706 30009KT 9999 SKC QNH3028INS TX02/2706Z TNM06/2621Z

Example: see airport list